Time;durP1;ratioP1;P1;durP2;ratioP2;P2;SDS_P1;SDS_P2;PMS_P1;PMS_P2;Temp;Humidity;BMP_temperature;BMP_pressure;BME280_temperature;BME280_humidity;BME280_pressure;Samples;Min_cycle;Max_cycle;Signal;HPM_P1;HPM_P2
2023/12/29 00:00:29;;;;;;;1.80;1.70;;;;;;;-141.84;72.86;18765.28;5052027;28;20628;-59
2023/12/29 00:02:57;;;;;;;3.90;1.63;;;;;;;-141.84;72.17;18771.38;5044356;28;20225;-59
2023/12/29 00:05:27;;;;;;;3.03;1.70;;;;;;;-141.84;72.80;18744.97;5051908;28;20315;-59
2023/12/29 00:07:56;;;;;;;2.67;2.20;;;;;;;-141.84;72.04;18744.97;5051662;28;20917;-57
2023/12/29 00:10:24;;;;;;;2.17;1.83;;;;;;;-141.84;70.90;18747.00;5052105;28;20868;-56
2023/12/29 00:12:55;;;;;;;2.93;2.00;;;;;;;-141.84;69.90;18718.56;5051826;28;20221;-57
2023/12/29 00:15:28;;;;;;;2.00;1.50;;;;;;;-141.84;70.10;18688.06;5051366;28;20816;-57
2023/12/29 00:17:57;;;;;;;2.93;1.70;;;;;;;-141.84;69.53;18710.44;5051626;28;20320;-57
2023/12/29 00:20:26;;;;;;;1.70;1.60;;;;;;;-141.84;69.13;18716.53;5051559;28;20228;-57
2023/12/29 00:23:08;;;;;;;2.10;1.83;;;;;;;-141.84;69.96;18724.66;5048595;28;20227;-55
2023/12/29 00:25:37;;;;;;;2.53;1.80;;;;;;;-141.84;68.66;18722.63;5054663;28;20216;-57
2023/12/29 00:28:06;;;;;;;2.10;1.90;;;;;;;-141.84;69.17;18726.69;5051441;28;20207;-60
2023/12/29 00:30:40;;;;;;;2.00;1.73;;;;;;;-141.84;69.20;18698.22;5051227;28;20233;-59
2023/12/29 00:33:26;;;;;;;2.60;1.97;;;;;;;-141.84;69.04;18722.63;5042979;28;20586;-59
2023/12/29 00:35:58;;;;;;;1.77;1.50;;;;;;;-141.84;69.21;18694.16;5050852;28;20228;-60
2023/12/29 00:38:29;;;;;;;1.67;1.50;;;;;;;-141.84;69.34;18722.63;5050923;28;20307;-59
2023/12/29 00:40:57;;;;;;;2.00;1.70;;;;;;;-141.84;69.86;18712.47;5051203;28;20229;-60
2023/12/29 00:43:26;;;;;;;1.77;1.60;;;;;;;-141.84;70.06;18728.72;5050047;28;20741;-60
2023/12/29 00:45:56;;;;;;;2.17;1.60;;;;;;;-141.84;69.20;18744.97;5050458;28;20366;-60
2023/12/29 00:48:25;;;;;;;1.83;1.60;;;;;;;-141.84;69.76;18730.75;5050649;28;20221;-59
2023/12/29 00:50:53;;;;;;;2.83;1.80;;;;;;;-141.84;70.42;18763.25;5050565;28;20587;-59
2023/12/29 00:53:22;;;;;;;2.77;1.67;;;;;;;-141.84;70.60;18749.03;5053142;28;20348;-60
2023/12/29 00:55:50;;;;;;;1.70;1.60;;;;;;;-141.84;70.20;18740.91;5050650;28;20316;-59
2023/12/29 00:58:19;;;;;;;2.70;1.80;;;;;;;-141.84;70.27;18747.00;5050924;28;20213;-60
2023/12/29 01:00:47;;;;;;;1.73;1.57;;;;;;;-141.84;70.87;18765.28;5050413;28;20220;-62
2023/12/29 01:03:18;;;;;;;1.73;1.63;;;;;;;-141.84;71.20;18757.16;5050602;28;20764;-60
2023/12/29 01:05:49;;;;;;;1.70;1.50;;;;;;;-141.84;70.64;18724.66;5050257;28;20225;-59
2023/12/29 01:08:18;;;;;;;1.90;1.70;;;;;;;-141.84;70.33;18744.97;5050529;28;20233;-59
2023/12/29 01:10:46;;;;;;;1.93;1.73;;;;;;;-141.84;70.82;18771.38;5050224;28;20197;-59
2023/12/29 01:13:15;;;;;;;2.17;2.03;;;;;;;-141.84;70.98;18734.81;5050877;28;20194;-60
2023/12/29 01:15:45;;;;;;;1.50;1.40;;;;;;;-141.84;71.18;18769.34;5049852;28;20265;-60
2023/12/29 01:18:14;;;;;;;1.50;1.40;;;;;;;-141.84;70.85;18744.97;5050536;28;20312;-59
2023/12/29 01:20:44;;;;;;;2.03;1.70;;;;;;;-141.84;71.15;18779.50;5050226;28;20705;-58
2023/12/29 01:23:13;;;;;;;1.50;1.40;;;;;;;-141.84;70.92;18757.16;5054471;28;20245;-60
2023/12/29 01:25:41;;;;;;;2.43;1.70;;;;;;;-141.84;71.32;18767.31;5052013;28;20260;-60
2023/12/29 01:28:10;;;;;;;2.53;1.53;;;;;;;-141.84;70.34;18757.16;5050626;28;20197;-60
2023/12/29 01:30:39;;;;;;;1.83;1.50;;;;;;;-141.84;69.47;18728.72;5049834;28;20611;-60
2023/12/29 01:33:08;;;;;;;1.87;1.40;;;;;;;-141.84;68.41;18749.03;5049984;28;20229;-60
2023/12/29 01:35:36;;;;;;;2.00;1.30;;;;;;;-141.84;68.64;18716.53;5049747;28;20233;-60
2023/12/29 01:38:07;;;;;;;1.30;1.20;;;;;;;-141.84;68.15;18736.84;5050340;28;20292;-60
2023/12/29 01:40:44;;;;;;;1.40;1.20;;;;;;;-141.84;68.74;18761.22;5049760;28;20263;-60
2023/12/29 01:43:13;;;;;;;1.87;1.20;;;;;;;-141.84;69.01;18740.91;5050518;28;20189;-60
2023/12/29 01:45:42;;;;;;;1.20;1.10;;;;;;;-141.84;68.90;18712.47;5049268;28;20221;-59
2023/12/29 01:48:25;;;;;;;1.57;1.33;;;;;;;-141.84;68.99;18755.13;5050236;28;20306;-59
2023/12/29 01:50:55;;;;;;;2.27;1.23;;;;;;;-141.84;68.87;18712.47;5049994;28;20217;-59
2023/12/29 01:53:25;;;;;;;1.50;1.20;;;;;;;-141.84;69.52;18730.75;5052379;28;20229;-60
2023/12/29 01:56:09;;;;;;;1.67;1.50;;;;;;;-141.84;69.86;18742.94;5047364;28;20350;-59
2023/12/29 01:58:38;;;;;;;1.93;1.20;;;;;;;-141.84;69.71;18722.63;5041908;28;20220;-59
2023/12/29 02:01:07;;;;;;;1.17;1.10;;;;;;;-141.84;70.71;18751.06;5050263;28;20280;-59
2023/12/29 02:03:37;;;;;;;1.40;1.30;;;;;;;-141.84;69.94;18751.06;5049785;28;20233;-60
2023/12/29 02:06:07;;;;;;;1.43;1.30;;;;;;;-141.84;69.89;18753.09;5049598;28;20710;-60
2023/12/29 02:08:37;;;;;;;1.20;1.10;;;;;;;-141.84;69.70;18730.75;5049738;28;20956;-60
2023/12/29 02:11:06;;;;;;;1.30;1.20;;;;;;;-141.84;69.36;18722.63;5049129;28;20245;-60
2023/12/29 02:13:34;;;;;;;1.20;1.10;;;;;;;-141.84;68.77;18710.44;5049573;28;20285;-59
2023/12/29 02:16:08;;;;;;;1.80;1.00;;;;;;;-141.84;68.25;18740.91;5050244;28;20273;-59
2023/12/29 02:18:39;;;;;;;1.97;1.10;;;;;;;-141.84;69.02;18722.63;5041621;28;20245;-60
2023/12/29 02:21:08;;;;;;;2.03;1.10;;;;;;;-141.84;69.34;18710.44;5049626;28;20221;-60
2023/12/29 02:23:38;;;;;;;1.77;1.67;;;;;;;-141.84;68.40;18718.56;5052169;28;20316;-59
2023/12/29 02:26:16;;;;;;;1.20;1.10;;;;;;;-141.84;68.38;18753.09;5049147;28;20253;-60
2023/12/29 02:28:51;;;;;;;1.10;1.00;;;;;;;-141.84;68.98;18712.47;5049762;28;20213;-59
2023/12/29 02:31:25;;;;;;;1.43;0.83;;;;;;;-141.84;68.55;18722.63;5050126;28;20229;-59
2023/12/29 02:33:54;;;;;;;1.03;1.00;;;;;;;-141.84;67.89;18740.91;5049651;28;20438;-59
2023/12/29 02:36:24;;;;;;;1.30;1.20;;;;;;;-141.84;68.64;18755.13;5049007;28;20699;-60
2023/12/29 02:38:53;;;;;;;0.80;0.80;;;;;;;-141.84;68.43;18704.31;5049734;28;20225;-60
2023/12/29 02:41:24;;;;;;;1.27;1.17;;;;;;;-141.84;68.26;18716.53;5049297;28;20229;-61
2023/12/29 02:43:53;;;;;;;1.27;1.00;;;;;;;-141.84;68.66;18714.50;5033714;28;20302;-59
2023/12/29 02:46:21;;;;;;;1.27;0.83;;;;;;;-141.84;68.67;18726.69;5050066;28;20223;-56
2023/12/29 02:48:50;;;;;;;1.40;0.97;;;;;;;-141.84;69.93;18732.78;5049384;28;20251;-57
2023/12/29 02:51:19;;;;;;;1.60;1.20;;;;;;;-141.84;70.06;18751.06;5049274;28;20343;-57
2023/12/29 02:53:48;;;;;;;1.13;1.00;;;;;;;-141.84;70.67;18751.06;5051234;28;20252;-54
2023/12/29 02:56:17;;;;;;;1.10;1.00;;;;;;;-141.84;71.06;18724.66;5049125;28;20287;-56
2023/12/29 02:58:48;;;;;;;0.77;0.77;;;;;;;-141.84;71.15;18757.16;5052142;28;20641;-57
2023/12/29 03:01:16;;;;;;;2.13;1.00;;;;;;;-141.84;71.93;18765.28;5053271;28;20695;-57
2023/12/29 03:03:45;;;;;;;1.20;1.10;;;;;;;-141.84;71.99;18749.03;5052817;28;20230;-57
2023/12/29 03:06:13;;;;;;;1.30;1.20;;;;;;;-141.84;69.24;18718.56;5052834;28;20274;-57
2023/12/29 03:08:42;;;;;;;1.27;1.07;;;;;;;-141.84;71.11;18728.72;5052993;28;20279;-57
2023/12/29 03:11:11;;;;;;;1.10;1.00;;;;;;;-141.84;72.95;18826.25;5052668;28;20236;-56
2023/12/29 03:13:39;;;;;;;1.30;1.00;;;;;;;-141.84;71.41;18769.34;5052728;28;20251;-54
2023/12/29 03:16:09;;;;;;;1.03;0.93;;;;;;;-141.84;72.34;18809.97;5053012;28;20225;-58
2023/12/29 03:18:39;;;;;;;1.20;1.00;;;;;;;-141.84;70.83;18757.16;5052606;28;20229;-57
2023/12/29 03:21:08;;;;;;;1.20;1.10;;;;;;;-141.84;71.20;18765.28;5052602;28;20221;-57
2023/12/29 03:23:37;;;;;;;1.40;1.00;;;;;;;-141.84;71.93;18793.72;5058175;28;20228;-57
2023/12/29 03:26:06;;;;;;;0.97;0.97;;;;;;;-141.84;69.87;18744.97;5052387;28;20283;-58
2023/12/29 03:28:34;;;;;;;0.93;0.90;;;;;;;-141.84;71.43;18765.28;5052637;28;20597;-57
2023/12/29 03:31:03;;;;;;;1.43;1.00;;;;;;;-141.84;71.97;18744.97;5052976;28;20201;-56
2023/12/29 03:33:33;;;;;;;1.10;1.00;;;;;;;-141.84;72.81;18771.38;5052174;28;20316;-56
2023/12/29 03:36:02;;;;;;;1.03;1.00;;;;;;;-141.84;73.73;18856.72;5052626;28;20224;-57
2023/12/29 03:38:32;;;;;;;1.87;1.33;;;;;;;-141.84;74.14;18860.78;5044249;28;20225;-55
2023/12/29 03:41:00;;;;;;;1.07;0.87;;;;;;;-141.84;72.73;18793.72;5052380;28;20301;-57
2023/12/29 03:43:29;;;;;;;1.20;1.10;;;;;;;-141.84;71.83;18793.72;5044600;28;20230;-57
2023/12/29 03:45:57;;;;;;;1.10;1.00;;;;;;;-141.84;71.67;18769.34;5052501;28;20213;-56
2023/12/29 03:48:26;;;;;;;0.80;0.80;;;;;;;-141.84;71.64;18767.31;5051895;28;20236;-56
2023/12/29 03:50:56;;;;;;;1.20;0.90;;;;;;;-141.84;69.52;18753.09;5052032;28;20256;-56
2023/12/29 03:53:24;;;;;;;1.40;1.00;;;;;;;-141.84;69.25;18736.84;5053059;28;20685;-56
2023/12/29 03:55:53;;;;;;;0.93;0.90;;;;;;;-141.84;69.08;18744.97;5051976;28;20222;-56
2023/12/29 03:58:21;;;;;;;0.80;0.80;;;;;;;-141.84;68.82;18718.56;5051966;28;20692;-55
2023/12/29 04:00:50;;;;;;;0.93;0.90;;;;;;;-141.84;67.43;18724.66;5051644;28;20229;-55
2023/12/29 04:03:18;;;;;;;1.10;0.90;;;;;;;-141.84;66.98;18710.44;5051621;28;20221;-55
2023/12/29 04:05:47;;;;;;;1.23;0.90;;;;;;;-141.84;67.48;18692.13;5051697;28;20328;-57
2023/12/29 04:08:17;;;;;;;1.00;0.90;;;;;;;-141.84;67.54;18681.97;5051617;28;20344;-57
2023/12/29 04:10:45;;;;;;;2.10;0.93;;;;;;;-141.84;67.59;18684.00;5051032;28;20205;-57
2023/12/29 04:13:14;;;;;;;1.30;0.90;;;;;;;-141.84;68.24;18696.19;5043852;28;20197;-55
2023/12/29 04:15:43;;;;;;;0.93;0.90;;;;;;;-141.84;66.73;18712.47;5051717;28;20221;-56
2023/12/29 04:18:11;;;;;;;0.83;0.83;;;;;;;-141.84;67.26;18702.28;5051303;28;20283;-57
2023/12/29 04:20:40;;;;;;;1.00;0.90;;;;;;;-141.84;67.02;18710.44;5051497;28;20214;-56
2023/12/29 04:23:09;;;;;;;1.00;0.90;;;;;;;-141.84;67.78;18708.41;5054773;28;20319;-57
2023/12/29 04:25:39;;;;;;;0.90;0.90;;;;;;;-141.84;67.61;18706.38;5050761;28;20205;-57
2023/12/29 04:28:08;;;;;;;1.10;1.00;;;;;;;-141.84;67.02;18698.22;5051260;28;20295;-56
2023/12/29 04:30:37;;;;;;;1.13;1.03;;;;;;;-141.84;67.31;18710.44;5051553;28;20221;-56
2023/12/29 04:33:06;;;;;;;1.37;1.20;;;;;;;-141.84;67.87;18708.41;5050990;28;20225;-55
2023/12/29 04:35:34;;;;;;;1.27;0.87;;;;;;;-141.84;67.14;18698.22;5051074;28;20229;-56
2023/12/29 04:38:03;;;;;;;1.40;1.10;;;;;;;-141.84;66.51;18706.38;5051215;28;20287;-58
2023/12/29 04:40:31;;;;;;;1.20;1.10;;;;;;;-141.84;67.18;18718.56;5051015;28;20251;-57
2023/12/29 04:43:01;;;;;;;1.27;1.17;;;;;;;-141.84;67.24;18751.06;5044616;28;20285;-55
2023/12/29 04:45:30;;;;;;;1.97;1.00;;;;;;;-141.84;67.00;18708.41;5048795;28;20225;-57
2023/12/29 04:47:58;;;;;;;1.67;1.10;;;;;;;-141.84;68.08;18688.06;5050646;28;20240;-56
2023/12/29 04:50:27;;;;;;;2.20;1.20;;;;;;;-141.84;69.00;18694.16;5051026;28;20223;-57
2023/12/29 04:52:56;;;;;;;0.90;0.90;;;;;;;-141.84;69.76;18753.09;5051406;28;20224;-57
2023/12/29 04:55:25;;;;;;;1.53;1.07;;;;;;;-141.84;70.27;18744.97;5051200;28;20197;-57
2023/12/29 04:57:53;;;;;;;0.80;0.80;;;;;;;-141.84;70.31;18747.00;5050669;28;20224;-54
2023/12/29 05:00:23;;;;;;;1.20;1.10;;;;;;;-141.84;70.72;18779.50;5050702;28;20233;-56
2023/12/29 05:02:52;;;;;;;1.10;1.00;;;;;;;-141.84;70.69;18767.31;5050957;28;20266;-54
2023/12/29 05:05:20;;;;;;;1.87;0.90;;;;;;;-141.84;71.23;18773.41;5051129;28;20253;-56
2023/12/29 05:07:49;;;;;;;1.30;1.20;;;;;;;-141.84;72.12;18797.78;5050355;28;20882;-57
2023/12/29 05:10:17;;;;;;;1.10;1.00;;;;;;;-141.84;72.22;18753.09;5051340;28;20197;-57
2023/12/29 05:12:46;;;;;;;1.20;1.03;;;;;;;-141.84;72.87;18814.03;5050521;28;20236;-57
2023/12/29 05:15:15;;;;;;;1.17;1.07;;;;;;;-141.84;74.69;18879.06;5045242;28;20997;-55
2023/12/29 05:17:45;;;;;;;2.03;1.20;;;;;;;-141.84;72.04;18787.63;5052227;28;20290;-58
2023/12/29 05:20:14;;;;;;;2.03;1.20;;;;;;;-141.84;73.42;18842.50;5050218;28;20549;-58
2023/12/29 05:22:43;;;;;;;1.37;1.27;;;;;;;-141.84;72.45;18826.25;5050506;28;20293;-58
2023/12/29 05:25:12;;;;;;;1.10;1.00;;;;;;;-141.84;73.88;18822.19;5050504;28;20206;-54
2023/12/29 05:27:40;;;;;;;1.50;1.10;;;;;;;-141.84;71.12;18775.44;5050371;28;20221;-52
2023/12/29 05:30:10;;;;;;;1.70;1.47;;;;;;;-141.84;71.98;18773.41;5050070;28;20227;-57
2023/12/29 05:32:38;;;;;;;1.60;1.50;;;;;;;-141.84;73.19;18785.59;5050197;28;20221;-60
2023/12/29 05:35:09;;;;;;;1.00;1.00;;;;;;;-141.84;72.61;18803.88;5049547;28;20327;-59
2023/12/29 05:37:38;;;;;;;1.50;1.40;;;;;;;-141.84;71.95;18781.53;5050197;28;20209;-60
2023/12/29 05:40:07;;;;;;;1.20;1.10;;;;;;;-141.84;72.92;18769.34;5045883;28;20379;-60
2023/12/29 05:42:36;;;;;;;1.27;1.17;;;;;;;-141.84;73.65;18826.25;5040238;28;20228;-60
2023/12/29 05:45:06;;;;;;;1.33;1.23;;;;;;;-141.84;73.65;18820.16;5046413;28;20248;-58
2023/12/29 05:47:34;;;;;;;1.33;1.23;;;;;;;-141.84;72.07;18777.47;5049734;28;20240;-60
2023/12/29 05:50:03;;;;;;;1.40;1.30;;;;;;;-141.84;70.79;18728.72;5044404;28;20229;-60
2023/12/29 05:52:33;;;;;;;1.33;1.20;;;;;;;-141.84;70.25;18753.09;5049843;28;20573;-59
2023/12/29 05:55:02;;;;;;;1.30;1.20;;;;;;;-141.84;69.23;18744.97;5050056;28;20288;-59
2023/12/29 05:57:31;;;;;;;1.40;1.30;;;;;;;-141.84;69.48;18738.88;5049912;28;20240;-59
2023/12/29 06:00:00;;;;;;;1.63;1.40;;;;;;;-141.84;67.72;18722.63;5049502;28;20304;-60
2023/12/29 06:02:29;;;;;;;1.30;1.20;;;;;;;-141.84;66.23;18690.09;5049582;28;20224;-60
2023/12/29 06:04:57;;;;;;;1.43;1.17;;;;;;;-141.84;66.02;18698.22;5049910;28;20571;-60
2023/12/29 06:07:26;;;;;;;1.80;1.30;;;;;;;-141.84;65.68;18679.94;5050506;28;20671;-60
2023/12/29 06:09:56;;;;;;;1.50;1.30;;;;;;;-141.84;65.00;18669.78;5049905;28;20294;-57
2023/12/29 06:12:25;;;;;;;1.70;1.30;;;;;;;-141.84;65.22;18681.97;5050222;28;20588;-57
2023/12/29 06:14:53;;;;;;;4.37;1.47;;;;;;;-141.84;65.74;18663.69;5049250;28;20235;-57
2023/12/29 06:17:22;;;;;;;1.50;1.40;;;;;;;-141.84;66.97;18702.28;5049413;28;20311;-57
2023/12/29 06:19:51;;;;;;;1.60;1.40;;;;;;;-141.84;66.00;18718.56;5049811;28;20233;-56
2023/12/29 06:22:20;;;;;;;3.13;1.53;;;;;;;-141.84;66.66;18675.88;5049631;28;20267;-55
2023/12/29 06:24:48;;;;;;;1.33;1.23;;;;;;;-141.84;66.02;18688.06;5053620;28;20237;-56
2023/12/29 06:27:18;;;;;;;2.00;1.60;;;;;;;-141.84;67.35;18696.19;5049417;28;20295;-57
2023/12/29 06:29:47;;;;;;;2.00;1.33;;;;;;;-141.84;66.93;18710.44;5049266;28;20605;-57
2023/12/29 06:32:15;;;;;;;1.50;1.37;;;;;;;-141.84;66.35;18688.06;5048539;28;20252;-56
2023/12/29 06:34:44;;;;;;;1.50;1.40;;;;;;;-141.84;66.09;18679.94;5051110;28;20764;-57
2023/12/29 06:37:13;;;;;;;1.50;1.40;;;;;;;-141.84;65.98;18667.75;5053838;28;20202;-57
2023/12/29 06:39:41;;;;;;;1.67;1.50;;;;;;;-141.84;66.16;18716.53;5050195;28;20275;-57
2023/12/29 06:42:10;;;;;;;1.60;1.50;;;;;;;-141.84;64.86;18684.00;5053383;28;20228;-57
2023/12/29 06:44:40;;;;;;;2.63;1.47;;;;;;;-141.84;64.47;18716.53;5046370;28;20764;-57
2023/12/29 06:47:09;;;;;;;2.50;1.60;;;;;;;-141.84;65.49;18686.03;5050668;28;20225;-55
2023/12/29 06:49:37;;;;;;;1.50;1.33;;;;;;;-141.84;64.88;18704.31;5044601;28;20272;-59
2023/12/29 06:52:06;;;;;;;1.30;1.20;;;;;;;-141.84;65.33;18671.81;5053665;28;20205;-60
2023/12/29 06:54:35;;;;;;;1.43;1.33;;;;;;;-141.84;64.13;18710.44;5052945;28;20250;-60
2023/12/29 06:57:05;;;;;;;2.17;1.50;;;;;;;-141.84;63.46;18708.41;5051871;28;20283;-60
2023/12/29 06:59:33;;;;;;;1.77;1.50;;;;;;;-141.84;63.28;18688.06;5049430;28;20245;-60
2023/12/29 07:02:04;;;;;;;1.47;1.37;;;;;;;-141.84;63.21;18722.63;5049469;28;20392;-60
2023/12/29 07:04:32;;;;;;;1.40;1.30;;;;;;;-141.84;62.56;18728.72;5050028;28;20197;-59
2023/12/29 07:07:02;;;;;;;4.00;1.57;;;;;;;-141.84;62.82;18720.59;5051210;28;20205;-57
2023/12/29 07:09:31;;;;;;;1.87;1.13;;;;;;;-141.84;62.49;18708.41;5049894;28;20245;-58
2023/12/29 07:11:59;;;;;;;1.33;1.20;;;;;;;-141.84;62.28;18716.53;5044351;28;20249;-58
2023/12/29 07:14:28;;;;;;;2.30;1.37;;;;;;;-141.84;62.30;18675.88;5048006;28;20222;-56
2023/12/29 07:16:58;;;;;;;2.90;1.60;;;;;;;-141.84;62.67;18710.44;5049139;28;20241;-56
2023/12/29 07:19:33;;;;;;;2.87;1.77;;;;;;;-141.84;62.77;18712.47;5053149;28;20840;-59
2023/12/29 07:22:02;;;;;;;1.57;1.40;;;;;;;-141.84;63.21;18722.63;5052991;28;20737;-56
2023/12/29 07:24:31;;;;;;;1.93;1.30;;;;;;;-141.84;62.35;18706.38;5054994;28;20330;-56
2023/12/29 07:27:00;;;;;;;1.80;1.50;;;;;;;-141.84;62.32;18744.97;5052487;28;20588;-55
2023/12/29 07:29:28;;;;;;;2.60;1.30;;;;;;;-141.84;62.15;18694.16;5052451;28;20257;-54
2023/12/29 07:31:57;;;;;;;3.30;1.33;;;;;;;-141.84;62.47;18736.84;5047545;28;20283;-56
2023/12/29 07:34:27;;;;;;;1.77;1.03;;;;;;;-141.84;62.16;18728.72;5052717;28;20283;-57
2023/12/29 07:36:56;;;;;;;1.40;1.30;;;;;;;-141.84;62.08;18720.59;5052319;28;20236;-53
2023/12/29 07:39:25;;;;;;;1.70;1.40;;;;;;;-141.84;62.90;18718.56;5051336;28;20217;-57
2023/12/29 07:41:53;;;;;;;2.47;1.33;;;;;;;-141.84;63.75;18712.47;5051283;28;20312;-57
2023/12/29 07:44:22;;;;;;;1.40;1.10;;;;;;;-141.84;63.37;18726.69;5044319;28;20225;-55
2023/12/29 07:46:50;;;;;;;2.63;1.17;;;;;;;-141.84;64.06;18710.44;5051924;28;20312;-57
2023/12/29 07:49:19;;;;;;;1.90;1.20;;;;;;;-141.84;64.15;18720.59;5052336;28;20229;-55
2023/12/29 07:51:49;;;;;;;5.27;1.50;;;;;;;-141.84;64.20;18710.44;5051807;28;20270;-56
2023/12/29 07:54:17;;;;;;;2.93;1.50;;;;;;;-141.84;63.75;18718.56;5051895;28;20279;-55
2023/12/29 07:56:46;;;;;;;1.93;1.40;;;;;;;-141.84;64.44;18692.13;5049998;28;20308;-52
2023/12/29 07:59:15;;;;;;;1.90;1.30;;;;;;;-141.84;65.09;18704.31;5050626;28;20231;-56
2023/12/29 08:01:43;;;;;;;3.87;1.70;;;;;;;-141.84;64.95;18688.06;5051796;28;20288;-56
2023/12/29 08:04:12;;;;;;;1.87;1.27;;;;;;;-141.84;64.92;18704.31;5052610;28;20198;-56
2023/12/29 08:06:43;;;;;;;2.57;1.20;;;;;;;-141.84;65.25;18708.41;5051834;28;20218;-54
2023/12/29 08:09:13;;;;;;;2.33;1.40;;;;;;;-141.84;65.17;18728.72;5051627;28;20236;-56
2023/12/29 08:11:42;;;;;;;4.70;1.50;;;;;;;-141.84;64.46;18751.06;5051784;28;20241;-55
2023/12/29 08:14:11;;;;;;;2.40;1.40;;;;;;;-141.84;65.49;18710.44;5051602;28;20312;-58
2023/12/29 08:16:41;;;;;;;1.53;1.23;;;;;;;-141.84;65.60;18740.91;5050577;28;20288;-57
2023/12/29 08:19:10;;;;;;;1.70;1.30;;;;;;;-141.84;65.28;18742.94;5052012;28;20209;-57
2023/12/29 08:21:39;;;;;;;1.57;1.40;;;;;;;-141.84;65.42;18700.25;5051585;28;20221;-56
2023/12/29 08:24:08;;;;;;;1.40;1.23;;;;;;;-141.84;65.55;18706.38;5051256;28;20224;-57
2023/12/29 08:26:45;;;;;;;2.33;1.40;;;;;;;-141.84;65.88;18757.16;5051385;28;20283;-56
2023/12/29 08:29:13;;;;;;;3.20;1.67;;;;;;;-141.84;66.20;18753.09;5050656;28;20856;-55
2023/12/29 08:31:42;;;;;;;1.83;1.30;;;;;;;-141.84;66.18;18726.69;5051411;28;20240;-56
2023/12/29 08:34:12;;;;;;;2.93;1.80;;;;;;;-141.84;65.50;18738.88;5051740;28;20233;-60
2023/12/29 08:36:40;;;;;;;3.43;1.50;;;;;;;-141.84;65.79;18749.03;5051144;28;20221;-60
2023/12/29 08:39:11;;;;;;;1.87;1.43;;;;;;;-141.84;65.44;18742.94;5051048;28;20245;-61
2023/12/29 08:41:41;;;;;;;1.63;1.30;;;;;;;-141.84;65.83;18757.16;5051056;28;21035;-56
2023/12/29 08:44:10;;;;;;;2.17;1.50;;;;;;;-141.84;65.60;18761.22;5045345;28;20221;-57
2023/12/29 08:46:39;;;;;;;1.77;1.30;;;;;;;-141.84;66.14;18720.59;5051198;28;20223;-57
2023/12/29 08:49:10;;;;;;;3.13;1.40;;;;;;;-141.84;65.24;18744.97;5051749;28;20209;-57
2023/12/29 08:51:39;;;;;;;1.73;1.30;;;;;;;-141.84;65.49;18765.28;5050603;28;20257;-58
2023/12/29 08:54:07;;;;;;;2.60;1.53;;;;;;;-141.84;65.65;18720.59;5050478;28;20219;-57
2023/12/29 08:56:36;;;;;;;3.57;1.60;;;;;;;-141.84;65.66;18740.91;5050516;28;20233;-56
2023/12/29 08:59:06;;;;;;;1.83;1.53;;;;;;;-141.84;65.39;18742.94;5050768;28;20222;-56
2023/12/29 09:01:34;;;;;;;1.87;1.50;;;;;;;-141.84;64.85;18763.25;5050957;28;20258;-51
2023/12/29 09:04:03;;;;;;;1.57;1.47;;;;;;;-141.84;63.78;18747.00;5051009;28;20202;-51
2023/12/29 09:06:32;;;;;;;3.10;1.57;;;;;;;-141.84;63.80;18767.31;5050541;28;20280;-55
2023/12/29 09:09:01;;;;;;;2.87;1.80;;;;;;;-141.84;64.27;18753.09;5050190;28;20641;-56
2023/12/29 09:11:29;;;;;;;2.57;1.20;;;;;;;-141.84;63.88;18769.34;5050874;28;20230;-57
2023/12/29 09:13:58;;;;;;;2.20;1.43;;;;;;;-141.84;63.32;18771.38;5050358;28;20588;-56
2023/12/29 09:16:28;;;;;;;4.10;1.50;;;;;;;-141.84;62.42;18765.28;5048347;28;20281;-56
2023/12/29 09:18:56;;;;;;;1.40;1.30;;;;;;;-141.84;62.72;18785.59;5042152;28;20217;-57
2023/12/29 09:21:25;;;;;;;1.87;1.30;;;;;;;-141.84;62.30;18742.94;5050418;28;20221;-54
2023/12/29 09:23:54;;;;;;;1.77;1.20;;;;;;;-141.84;61.91;18824.22;5047387;28;20261;-55
2023/12/29 09:26:22;;;;;;;2.33;1.27;;;;;;;-141.84;62.53;18744.97;5048546;28;20383;-57
2023/12/29 09:28:51;;;;;;;1.50;1.30;;;;;;;-141.84;63.08;18777.47;5050063;28;20734;-58
2023/12/29 09:31:19;;;;;;;3.50;1.50;;;;;;;-141.84;63.18;18791.69;5051002;28;20197;-57
2023/12/29 09:33:49;;;;;;;1.70;1.30;;;;;;;-141.84;63.59;18818.09;5048185;28;20717;-59
2023/12/29 09:36:18;;;;;;;3.17;1.80;;;;;;;-141.84;63.17;18805.91;5047219;28;20225;-61
2023/12/29 09:38:46;;;;;;;3.90;1.60;;;;;;;-141.84;63.89;18767.31;5049626;28;20317;-59
2023/12/29 09:41:18;;;;;;;1.80;1.57;;;;;;;-141.84;64.13;18761.22;5049597;28;20300;-59
2023/12/29 09:43:49;;;;;;;2.83;1.67;;;;;;;-141.84;64.65;18763.25;5048032;28;20216;-59
2023/12/29 09:46:19;;;;;;;1.77;1.23;;;;;;;-141.84;63.90;18781.53;5049846;28;20251;-59
2023/12/29 09:48:53;;;;;;;1.80;1.40;;;;;;;-141.84;64.60;18779.50;5049707;28;20751;-59
2023/12/29 09:51:24;;;;;;;1.43;1.30;;;;;;;-141.84;63.97;18761.22;5049912;28;20237;-60
2023/12/29 09:53:53;;;;;;;1.90;1.40;;;;;;;-141.84;62.91;18836.41;5049249;28;20226;-58
2023/12/29 09:56:21;;;;;;;1.80;1.40;;;;;;;-141.84;62.21;18799.81;5049751;28;20901;-53
2023/12/29 09:58:52;;;;;;;3.53;1.40;;;;;;;-141.84;62.04;18814.03;5049902;28;20663;-54
2023/12/29 10:01:21;;;;;;;2.47;1.63;;;;;;;-141.84;62.37;18769.34;5042508;28;20182;-59
2023/12/29 10:03:51;;;;;;;2.37;1.60;;;;;;;-141.84;62.04;18807.94;5049268;28;20221;-59
2023/12/29 10:06:24;;;;;;;3.43;1.73;;;;;;;-141.84;61.98;18789.66;5049255;28;20705;-60
2023/12/29 10:08:54;;;;;;;3.00;1.43;;;;;;;-141.84;61.29;18791.69;5049295;28;20316;-59
2023/12/29 10:11:25;;;;;;;3.40;1.47;;;;;;;-141.84;61.90;18820.16;5049460;28;20793;-59
2023/12/29 10:13:59;;;;;;;1.50;1.40;;;;;;;-141.84;61.50;18850.63;5049893;28;20228;-59
2023/12/29 10:16:34;;;;;;;1.27;1.17;;;;;;;-141.84;61.27;18834.38;5050151;28;20293;-58
2023/12/29 10:19:27;;;;;;;3.73;1.53;;;;;;;-141.84;61.69;18809.97;5044324;28;20220;-57
2023/12/29 10:22:03;;;;;;;4.40;1.40;;;;;;;-141.84;60.87;18787.63;5047314;28;20221;-60
2023/12/29 10:24:33;;;;;;;3.60;1.87;;;;;;;-141.84;60.86;18830.31;5043380;28;20592;-60
2023/12/29 10:27:02;;;;;;;2.57;1.30;;;;;;;-141.84;59.64;18838.44;5049147;28;20224;-58
2023/12/29 10:29:32;;;;;;;2.77;1.20;;;;;;;-141.84;60.14;18826.25;5048573;28;20260;-58
2023/12/29 10:32:00;;;;;;;3.50;1.33;;;;;;;-141.84;60.46;18846.56;5049297;28;20248;-56
2023/12/29 10:34:31;;;;;;;2.47;1.50;;;;;;;-141.84;59.98;18828.28;5049335;28;20233;-59
2023/12/29 10:37:02;;;;;;;2.37;1.20;;;;;;;-141.84;59.22;18870.94;5049334;28;20209;-55
2023/12/29 10:39:31;;;;;;;1.43;1.00;;;;;;;-141.84;58.80;18846.56;5048818;28;20225;-60
2023/12/29 10:42:06;;;;;;;1.63;1.23;;;;;;;-141.84;59.17;18850.63;5049164;28;20221;-63
2023/12/29 10:44:36;;;;;;;1.57;1.10;;;;;;;-141.84;59.17;18856.72;5041662;28;20296;-64
2023/12/29 10:47:11;;;;;;;2.23;1.27;;;;;;;-141.84;59.53;18848.59;5049244;28;20230;-63
2023/12/29 10:49:42;;;;;;;3.50;1.23;;;;;;;-141.84;60.31;18812.00;5043901;28;20288;-60
2023/12/29 10:52:14;;;;;;;2.10;1.10;;;;;;;-141.84;60.16;18785.59;5049550;28;20537;-60
2023/12/29 10:54:44;;;;;;;1.70;1.00;;;;;;;-141.84;60.02;18797.78;5048457;28;20256;-60
2023/12/29 10:57:14;;;;;;;3.03;1.40;;;;;;;-141.84;60.47;18814.03;5049022;28;20605;-59
2023/12/29 10:59:43;;;;;;;1.43;1.00;;;;;;;-141.84;60.32;18814.03;5048851;28;20312;-59
2023/12/29 11:02:15;;;;;;;1.10;1.00;;;;;;;-141.84;61.34;18814.03;5048523;28;20300;-59
2023/12/29 11:04:45;;;;;;;2.83;1.30;;;;;;;-141.84;61.87;18797.78;5049194;28;20224;-61
2023/12/29 11:07:14;;;;;;;1.87;1.17;;;;;;;-141.84;61.50;18834.38;5049399;28;20190;-61
2023/12/29 11:09:43;;;;;;;1.10;0.90;;;;;;;-141.84;60.28;18858.75;5040753;28;20238;-61
2023/12/29 11:12:13;;;;;;;1.47;1.00;;;;;;;-141.84;60.65;18848.59;5048905;28;20268;-61
2023/12/29 11:14:46;;;;;;;1.10;0.90;;;;;;;-141.84;60.49;18834.38;5048613;28;20229;-62
2023/12/29 11:17:16;;;;;;;1.70;1.07;;;;;;;-141.84;60.13;18854.69;5043854;28;20221;-60
2023/12/29 11:19:48;;;;;;;1.37;1.13;;;;;;;-141.84;58.61;18891.25;5051371;28;20658;-60
2023/12/29 11:22:18;;;;;;;1.65;1.10;;;;;;;-141.84;58.51;18862.81;5044720;28;20201;-61
2023/12/29 11:24:48;;;;;;;2.17;1.20;;;;;;;-141.84;57.96;18868.91;5051617;28;20232;-61
2023/12/29 11:27:18;;;;;;;2.30;1.10;;;;;;;-141.84;58.14;18909.53;5052389;28;20320;-61